createdAt,value
2023-11-30T00:00:22.064Z,48.64
2023-11-30T00:03:09.061Z,48.33
2023-11-30T00:05:36.825Z,48.40
2023-11-30T00:08:03.721Z,48.53
2023-11-30T00:10:30.793Z,48.51
2023-11-30T00:12:57.627Z,48.89
2023-11-30T00:15:24.819Z,48.85
2023-11-30T00:17:51.694Z,48.79
2023-11-30T00:20:18.840Z,48.35
2023-11-30T00:22:47.220Z,48.49
2023-11-30T00:25:14.358Z,48.96
2023-11-30T00:27:41.171Z,48.62
2023-11-30T00:30:08.924Z,49.03
2023-11-30T00:32:36.915Z,48.66
2023-11-30T00:35:04.647Z,48.87
2023-11-30T00:37:31.469Z,48.94
2023-11-30T00:39:58.612Z,48.93
2023-11-30T00:42:26.819Z,48.74
2023-11-30T00:44:54.194Z,49.18
2023-11-30T00:47:21.004Z,48.74
2023-11-30T00:49:48.194Z,49.14
2023-11-30T00:52:15.017Z,49.03
2023-11-30T00:54:42.121Z,49.00
2023-11-30T00:57:08.933Z,48.66
2023-11-30T00:59:36.073Z,48.93
2023-11-30T01:02:02.914Z,48.92
2023-11-30T01:04:30.045Z,48.98
2023-11-30T01:06:56.885Z,48.82
2023-11-30T01:09:24.036Z,48.65
2023-11-30T01:11:50.932Z,48.92
2023-11-30T01:14:18.114Z,48.71
2023-11-30T01:16:46.079Z,49.06
2023-11-30T01:19:13.366Z,48.97
2023-11-30T01:21:40.302Z,48.97
2023-11-30T01:24:07.648Z,49.17
2023-11-30T01:26:34.464Z,49.58
2023-11-30T01:29:01.558Z,49.46
2023-11-30T01:31:28.376Z,49.40
2023-11-30T01:33:55.517Z,48.93
2023-11-30T01:36:22.430Z,49.00
2023-11-30T01:38:49.576Z,48.99
2023-11-30T01:41:16.653Z,48.94
2023-11-30T01:43:43.740Z,48.90
2023-11-30T01:46:11.044Z,48.92
2023-11-30T01:48:38.208Z,48.71
2023-11-30T01:51:06.774Z,48.91
2023-11-30T01:53:37.769Z,49.09
2023-11-30T01:56:05.323Z,48.89
2023-11-30T01:58:32.465Z,48.86
2023-11-30T02:01:00.124Z,48.91
2023-11-30T02:03:27.824Z,48.79
2023-11-30T02:05:54.720Z,48.77
2023-11-30T02:08:21.839Z,49.28
2023-11-30T02:10:48.623Z,48.83
2023-11-30T02:13:15.733Z,48.99
2023-11-30T02:15:42.607Z,48.93
2023-11-30T02:18:09.872Z,49.28
2023-11-30T02:20:36.773Z,48.95
2023-11-30T02:23:03.918Z,49.24
2023-11-30T02:25:30.692Z,49.02
2023-11-30T02:27:59.845Z,48.99
2023-11-30T02:30:27.045Z,49.00
2023-11-30T02:32:54.419Z,49.32
2023-11-30T02:35:21.423Z,49.88
2023-11-30T02:37:48.599Z,49.51
2023-11-30T02:40:15.487Z,49.33
2023-11-30T02:42:42.648Z,49.73
2023-11-30T02:45:10.269Z,50.09
2023-11-30T02:47:37.504Z,50.05
2023-11-30T02:50:04.769Z,49.97
2023-11-30T02:52:32.367Z,49.97
2023-11-30T02:54:59.148Z,49.84
2023-11-30T02:57:26.589Z,49.68
2023-11-30T02:59:53.431Z,49.16
2023-11-30T03:02:20.655Z,49.75
2023-11-30T03:04:47.841Z,50.29
2023-11-30T03:07:15.061Z,49.72
2023-11-30T03:09:41.879Z,49.33
2023-11-30T03:12:09.160Z,49.55
2023-11-30T03:14:36.101Z,49.63
2023-11-30T03:17:03.526Z,49.98
2023-11-30T03:19:30.324Z,49.71
2023-11-30T03:21:57.736Z,49.78
2023-11-30T03:24:24.593Z,49.71
2023-11-30T03:26:51.883Z,49.87
2023-11-30T03:29:18.712Z,49.94
2023-11-30T03:31:45.875Z,49.64
2023-11-30T03:34:12.723Z,49.89
2023-11-30T03:36:40.016Z,50.10
2023-11-30T03:39:07.070Z,49.85
2023-11-30T03:41:34.252Z,50.05
2023-11-30T03:44:01.093Z,50.08
2023-11-30T03:46:28.756Z,50.01
2023-11-30T03:48:55.674Z,49.42
2023-11-30T03:51:22.876Z,49.70
2023-11-30T03:53:49.772Z,50.16
2023-11-30T03:56:16.847Z,49.65
2023-11-30T03:58:43.878Z,49.94
2023-11-30T04:01:10.968Z,49.63
2023-11-30T04:03:37.948Z,49.63
2023-11-30T04:06:05.370Z,49.94
2023-11-30T04:08:32.204Z,49.88
2023-11-30T04:10:59.312Z,49.59
2023-11-30T04:13:26.667Z,49.85
2023-11-30T04:15:53.772Z,49.58
2023-11-30T04:18:20.740Z,49.80
2023-11-30T04:20:47.895Z,49.71
2023-11-30T04:23:14.860Z,49.38
2023-11-30T04:25:41.998Z,49.19
2023-11-30T04:28:09.964Z,49.31
2023-11-30T04:30:37.275Z,49.12
2023-11-30T04:33:05.252Z,49.33
2023-11-30T04:35:32.891Z,49.27
2023-11-30T04:37:59.801Z,49.28
2023-11-30T04:40:26.944Z,49.53
2023-11-30T04:42:53.876Z,49.66
2023-11-30T04:45:21.104Z,49.59
2023-11-30T04:47:47.941Z,49.62
2023-11-30T04:50:15.058Z,49.44
2023-11-30T04:52:41.909Z,49.24
2023-11-30T04:55:09.401Z,49.08
2023-11-30T04:57:36.375Z,49.52
2023-11-30T05:00:06.563Z,49.46
2023-11-30T05:02:34.370Z,49.33
2023-11-30T05:05:01.652Z,49.31
2023-11-30T05:07:28.597Z,49.34
2023-11-30T05:09:55.751Z,49.56
2023-11-30T05:12:22.551Z,49.66
2023-11-30T05:14:49.813Z,49.39
2023-11-30T05:17:16.599Z,49.56
2023-11-30T05:19:43.737Z,49.52
2023-11-30T05:22:12.438Z,49.39
2023-11-30T05:24:39.811Z,49.67
2023-11-30T05:27:06.750Z,49.36
2023-11-30T05:29:34.054Z,49.81
2023-11-30T05:32:00.906Z,49.49
2023-11-30T05:34:28.098Z,49.42
2023-11-30T05:36:54.910Z,49.50
2023-11-30T05:39:22.060Z,49.59
2023-11-30T05:41:48.873Z,50.37
2023-11-30T05:44:16.853Z,50.01
2023-11-30T05:46:43.803Z,50.33
2023-11-30T05:49:11.103Z,50.02
2023-11-30T05:51:37.964Z,50.31
2023-11-30T05:54:05.355Z,49.96
2023-11-30T05:56:32.202Z,50.14
2023-11-30T05:58:59.380Z,50.07
2023-11-30T06:01:26.491Z,49.88
2023-11-30T06:03:53.942Z,50.22
2023-11-30T06:06:21.025Z,50.10
2023-11-30T06:08:48.409Z,50.27
2023-11-30T06:11:18.273Z,49.98
2023-11-30T06:13:46.475Z,50.28
2023-11-30T06:16:13.434Z,49.91
2023-11-30T06:18:40.621Z,50.24
2023-11-30T06:21:10.586Z,50.30
2023-11-30T06:23:38.490Z,50.27
2023-11-30T06:26:06.249Z,50.23
2023-11-30T06:28:33.395Z,50.16
2023-11-30T06:31:00.203Z,50.27
2023-11-30T06:33:27.886Z,50.27
2023-11-30T06:35:54.834Z,50.29
2023-11-30T06:38:22.002Z,49.97
2023-11-30T06:40:50.203Z,50.04
2023-11-30T06:43:17.685Z,50.14
2023-11-30T06:45:44.717Z,50.02
2023-11-30T06:48:11.961Z,49.78
2023-11-30T06:50:38.816Z,50.13
2023-11-30T06:53:06.013Z,50.08
2023-11-30T06:55:32.952Z,50.33
2023-11-30T06:58:00.181Z,50.31
2023-11-30T07:00:28.180Z,49.86
2023-11-30T07:02:55.550Z,49.93
2023-11-30T07:05:22.444Z,50.14
2023-11-30T07:07:49.799Z,50.18
2023-11-30T07:10:16.757Z,50.12
2023-11-30T07:12:44.179Z,49.94
2023-11-30T07:15:11.161Z,49.82
2023-11-30T07:17:38.372Z,50.20
2023-11-30T07:20:05.919Z,50.22
2023-11-30T07:22:33.050Z,50.11
2023-11-30T07:24:59.883Z,50.01
2023-11-30T07:27:27.689Z,50.08
2023-11-30T07:29:54.993Z,49.70
2023-11-30T07:32:22.141Z,50.15
2023-11-30T07:34:49.497Z,49.97
2023-11-30T07:37:17.722Z,50.06
2023-11-30T07:39:45.388Z,50.08
2023-11-30T07:42:13.414Z,50.04
2023-11-30T07:44:41.039Z,49.71
2023-11-30T07:47:08.236Z,49.80
2023-11-30T07:49:35.063Z,49.69
2023-11-30T07:52:02.639Z,49.81
2023-11-30T07:54:29.713Z,49.73
2023-11-30T07:56:56.839Z,49.35
2023-11-30T07:59:23.710Z,49.84
2023-11-30T08:01:50.875Z,49.30
2023-11-30T08:04:17.915Z,49.34
2023-11-30T08:06:46.018Z,49.46
2023-11-30T08:09:14.711Z,49.56
2023-11-30T08:11:42.218Z,49.26
2023-11-30T08:14:10.197Z,49.51
2023-11-30T08:16:39.085Z,49.53
2023-11-30T08:19:07.676Z,49.63
2023-11-30T08:21:37.171Z,49.64
2023-11-30T08:24:05.308Z,49.57
2023-11-30T08:26:32.439Z,49.72
2023-11-30T08:28:59.228Z,49.58
2023-11-30T08:31:26.824Z,49.82
2023-11-30T08:33:53.725Z,49.95
2023-11-30T08:36:21.008Z,49.70
2023-11-30T08:38:47.842Z,49.63
2023-11-30T08:41:14.948Z,49.74
2023-11-30T08:43:42.035Z,50.17
2023-11-30T08:46:09.573Z,50.23
2023-11-30T08:48:36.469Z,50.19
2023-11-30T08:51:03.756Z,49.79
2023-11-30T08:53:30.742Z,49.84
2023-11-30T08:55:57.973Z,49.80
2023-11-30T08:58:24.800Z,49.88
2023-11-30T09:00:51.898Z,49.66
2023-11-30T09:03:19.431Z,49.88
2023-11-30T09:05:46.721Z,49.58
2023-11-30T09:08:13.541Z,49.38
2023-11-30T09:10:40.853Z,49.44
2023-11-30T09:13:09.235Z,49.59
2023-11-30T09:15:37.414Z,49.67
2023-11-30T09:18:04.701Z,49.26
2023-11-30T09:20:31.994Z,49.39
2023-11-30T09:22:58.889Z,49.07
2023-11-30T09:25:26.287Z,48.96
2023-11-30T09:27:53.191Z,49.21
2023-11-30T09:30:20.335Z,49.07
2023-11-30T09:32:47.286Z,48.66
2023-11-30T09:35:14.476Z,49.02
2023-11-30T09:37:41.394Z,49.22
2023-11-30T09:40:10.572Z,48.96
2023-11-30T09:42:37.438Z,49.01
2023-11-30T09:45:05.581Z,48.92
2023-11-30T09:47:32.641Z,48.66
2023-11-30T09:50:01.897Z,48.61
2023-11-30T09:52:29.795Z,48.88
2023-11-30T09:54:57.772Z,48.76
2023-11-30T09:57:24.709Z,48.86
2023-11-30T09:59:51.934Z,48.96
2023-11-30T10:02:20.242Z,48.55
2023-11-30T10:04:47.537Z,48.75
2023-11-30T10:07:14.456Z,49.08
2023-11-30T10:09:41.730Z,48.71
2023-11-30T10:12:08.847Z,48.82
2023-11-30T10:14:36.054Z,48.69
2023-11-30T10:17:03.071Z,48.64
2023-11-30T10:19:31.803Z,48.80
2023-11-30T10:21:58.829Z,48.68
2023-11-30T10:24:26.705Z,48.47
2023-11-30T10:26:53.632Z,48.50
2023-11-30T10:29:22.171Z,48.88
2023-11-30T10:31:50.853Z,48.89
2023-11-30T10:34:20.350Z,48.49
2023-11-30T10:36:47.240Z,48.33
2023-11-30T10:39:24.510Z,48.58
2023-11-30T10:41:56.083Z,48.40
2023-11-30T10:44:27.711Z,48.63
2023-11-30T10:46:59.574Z,48.63
2023-11-30T10:49:28.412Z,48.70
2023-11-30T10:51:59.062Z,48.55
2023-11-30T10:54:32.981Z,48.36
2023-11-30T10:57:00.844Z,48.33
2023-11-30T10:59:31.640Z,48.51
2023-11-30T11:01:58.853Z,48.59
2023-11-30T11:04:29.257Z,48.46
2023-11-30T11:07:15.120Z,48.51
2023-11-30T11:09:51.369Z,48.84
2023-11-30T11:12:24.726Z,48.73
2023-11-30T11:14:54.146Z,48.38
2023-11-30T11:17:21.688Z,48.43
2023-11-30T11:19:48.890Z,48.57
2023-11-30T11:22:15.768Z,48.85
2023-11-30T11:24:43.085Z,48.64
2023-11-30T11:27:10.782Z,48.69
2023-11-30T11:29:42.571Z,48.48
2023-11-30T11:32:12.376Z,49.02
2023-11-30T11:34:39.481Z,48.73
2023-11-30T11:37:08.316Z,48.65
2023-11-30T11:39:35.628Z,48.81
2023-11-30T11:42:03.619Z,48.47
2023-11-30T11:44:30.835Z,48.58
2023-11-30T11:46:57.663Z,48.52
2023-11-30T11:49:24.940Z,48.76
2023-11-30T11:51:51.927Z,49.01
2023-11-30T11:54:19.969Z,49.22
2023-11-30T11:56:49.849Z,48.97
2023-11-30T11:59:33.188Z,48.98
2023-11-30T12:02:01.025Z,48.82
2023-11-30T12:04:35.191Z,48.87
2023-11-30T12:07:15.857Z,48.80
2023-11-30T12:09:43.388Z,49.04
2023-11-30T12:12:10.276Z,48.23
2023-11-30T12:14:37.447Z,49.02
2023-11-30T12:17:04.372Z,48.96
2023-11-30T12:19:31.453Z,49.05
2023-11-30T12:21:58.378Z,48.99
2023-11-30T12:24:25.620Z,49.09
2023-11-30T12:26:52.547Z,48.98
2023-11-30T12:29:19.652Z,49.19
2023-11-30T12:31:46.477Z,49.51
2023-11-30T12:34:13.754Z,49.21
2023-11-30T12:36:40.667Z,49.15
2023-11-30T12:39:08.424Z,49.15
2023-11-30T12:41:35.355Z,49.10
2023-11-30T12:44:04.914Z,49.09
2023-11-30T12:46:32.526Z,49.26
2023-11-30T12:48:59.777Z,49.23
2023-11-30T12:51:26.660Z,49.11
2023-11-30T12:53:53.878Z,48.90
2023-11-30T12:56:20.864Z,49.11
2023-11-30T12:58:48.267Z,49.29
2023-11-30T13:01:15.195Z,49.34
2023-11-30T13:03:42.929Z,49.22
2023-11-30T13:06:11.255Z,48.95
2023-11-30T13:08:38.490Z,49.21
2023-11-30T13:11:05.471Z,49.29
2023-11-30T13:13:41.866Z,49.16
2023-11-30T13:16:10.797Z,49.10
2023-11-30T13:18:38.338Z,49.53
2023-11-30T13:21:06.386Z,49.48
2023-11-30T13:23:33.663Z,49.20
2023-11-30T13:26:00.564Z,49.45
2023-11-30T13:28:35.422Z,49.32
2023-11-30T13:31:07.684Z,49.08
2023-11-30T13:33:35.521Z,49.24
2023-11-30T13:36:02.375Z,49.23
2023-11-30T13:38:29.543Z,49.06
2023-11-30T13:40:56.357Z,49.49
2023-11-30T13:43:24.194Z,49.42
2023-11-30T13:45:52.172Z,49.21
2023-11-30T13:48:19.563Z,49.46
2023-11-30T13:50:53.362Z,49.07
2023-11-30T13:53:23.678Z,49.82
2023-11-30T13:55:50.525Z,49.38
2023-11-30T13:58:17.667Z,49.13
2023-11-30T14:00:44.673Z,49.53
2023-11-30T14:03:12.427Z,49.52
2023-11-30T14:05:39.448Z,49.45
2023-11-30T14:08:06.803Z,49.41
2023-11-30T14:10:33.713Z,49.54
2023-11-30T14:13:00.997Z,49.53
2023-11-30T14:15:27.899Z,49.68
2023-11-30T14:17:55.074Z,49.29
2023-11-30T14:20:22.314Z,49.25
2023-11-30T14:22:49.645Z,49.38
2023-11-30T14:25:16.695Z,49.47
2023-11-30T14:27:46.803Z,49.13
2023-11-30T14:30:14.513Z,48.94
2023-11-30T14:32:42.206Z,49.06
2023-11-30T14:35:09.367Z,48.96
2023-11-30T14:37:36.565Z,49.20
2023-11-30T14:40:05.188Z,49.24
2023-11-30T14:42:32.983Z,49.21
2023-11-30T14:44:59.935Z,49.34
2023-11-30T14:47:28.090Z,49.42
2023-11-30T14:49:56.105Z,49.16
2023-11-30T14:52:23.915Z,49.29
2023-11-30T14:54:53.594Z,49.58
2023-11-30T14:57:20.999Z,49.35
2023-11-30T14:59:50.829Z,49.44
2023-11-30T15:02:18.581Z,49.48
2023-11-30T15:04:45.556Z,49.41
2023-11-30T15:07:12.630Z,49.66
2023-11-30T15:09:41.559Z,49.49
2023-11-30T15:12:09.081Z,49.47
2023-11-30T15:14:35.916Z,49.42
2023-11-30T15:17:03.302Z,49.22
2023-11-30T15:19:30.140Z,49.68
2023-11-30T15:21:57.261Z,49.57
2023-11-30T15:24:24.123Z,49.53
2023-11-30T15:26:51.512Z,49.30
2023-11-30T15:29:18.343Z,49.72
2023-11-30T15:31:45.541Z,49.68
2023-11-30T15:34:12.352Z,49.65
2023-11-30T15:36:42.819Z,49.28
2023-11-30T15:39:14.697Z,49.50
2023-11-30T15:41:47.036Z,49.70
2023-11-30T15:44:14.200Z,49.85
2023-11-30T15:46:44.704Z,49.44
2023-11-30T15:49:14.493Z,49.87
2023-11-30T15:51:43.174Z,49.41
2023-11-30T15:54:10.942Z,49.68
2023-11-30T15:56:38.427Z,49.89
2023-11-30T15:59:05.292Z,49.97
2023-11-30T16:01:32.545Z,49.76
2023-11-30T16:04:00.403Z,49.88
2023-11-30T16:06:27.808Z,49.68
2023-11-30T16:08:55.263Z,49.96
2023-11-30T16:11:22.370Z,49.91
2023-11-30T16:13:49.457Z,49.77
2023-11-30T16:16:17.065Z,49.90
2023-11-30T16:18:43.989Z,49.91
2023-11-30T16:21:18.650Z,50.04
2023-11-30T16:23:46.380Z,50.17
2023-11-30T16:26:17.810Z,50.20
2023-11-30T16:28:45.106Z,49.87
2023-11-30T16:31:12.508Z,49.67
2023-11-30T16:33:40.424Z,49.93
2023-11-30T16:36:08.788Z,50.09
2023-11-30T16:38:36.153Z,49.71
2023-11-30T16:41:03.967Z,49.94
2023-11-30T16:43:32.454Z,49.71
2023-11-30T16:45:59.733Z,50.04
2023-11-30T16:48:27.011Z,50.10
2023-11-30T16:50:54.142Z,49.88
2023-11-30T16:53:20.974Z,49.84
2023-11-30T16:55:48.587Z,49.58
2023-11-30T16:58:15.393Z,50.14
2023-11-30T17:00:42.760Z,49.96
2023-11-30T17:03:09.654Z,50.01
2023-11-30T17:05:38.866Z,50.14
2023-11-30T17:08:05.717Z,50.03
2023-11-30T17:10:32.839Z,49.93
2023-11-30T17:12:59.710Z,50.17
2023-11-30T17:15:27.081Z,50.12
2023-11-30T17:17:53.957Z,50.17
2023-11-30T17:20:21.039Z,50.15
2023-11-30T17:22:50.727Z,50.19
2023-11-30T17:25:17.943Z,50.27
2023-11-30T17:27:44.783Z,49.98
2023-11-30T17:30:12.262Z,50.28
2023-11-30T17:32:39.183Z,50.42
2023-11-30T17:35:07.025Z,50.38
2023-11-30T17:37:33.930Z,50.47
2023-11-30T17:40:01.535Z,50.34
2023-11-30T17:42:28.526Z,50.45
2023-11-30T17:44:55.839Z,50.35
2023-11-30T17:47:23.144Z,50.13
2023-11-30T17:49:50.289Z,50.26
2023-11-30T17:52:17.244Z,50.60
2023-11-30T17:54:44.462Z,50.33
2023-11-30T17:57:11.348Z,50.55
2023-11-30T17:59:38.579Z,50.35
2023-11-30T18:02:05.647Z,50.42
2023-11-30T18:04:33.280Z,50.42
2023-11-30T18:07:00.190Z,50.24
2023-11-30T18:09:28.038Z,50.39
2023-11-30T18:11:55.095Z,50.32
2023-11-30T18:14:23.591Z,50.30
2023-11-30T18:16:50.490Z,50.44
2023-11-30T18:19:17.720Z,50.70
2023-11-30T18:21:44.559Z,50.35
2023-11-30T18:24:11.806Z,50.35
2023-11-30T18:26:38.604Z,50.45
2023-11-30T18:29:06.075Z,50.52
2023-11-30T18:31:33.347Z,50.32
2023-11-30T18:34:00.600Z,50.76
2023-11-30T18:36:27.595Z,50.38
2023-11-30T18:38:55.012Z,50.34
2023-11-30T18:41:22.069Z,50.36
2023-11-30T18:43:49.927Z,50.63
2023-11-30T18:46:17.099Z,50.48
2023-11-30T18:48:44.680Z,50.56
2023-11-30T18:51:11.641Z,50.53
2023-11-30T18:53:39.016Z,50.68
2023-11-30T18:56:06.204Z,50.57
2023-11-30T18:58:33.405Z,50.68
2023-11-30T19:01:00.307Z,50.48
2023-11-30T19:03:27.616Z,50.76
2023-11-30T19:05:55.047Z,50.62
2023-11-30T19:08:22.227Z,50.69
2023-11-30T19:10:49.070Z,50.83
2023-11-30T19:13:16.311Z,50.96
2023-11-30T19:15:43.334Z,50.85
2023-11-30T19:18:10.940Z,50.69
2023-11-30T19:20:38.339Z,50.66
2023-11-30T19:23:05.693Z,50.97
2023-11-30T19:25:35.331Z,50.68
2023-11-30T19:28:02.585Z,50.78
2023-11-30T19:30:29.599Z,51.00
2023-11-30T19:32:56.777Z,50.95
2023-11-30T19:35:23.590Z,50.79
2023-11-30T19:37:50.748Z,50.60
2023-11-30T19:40:17.826Z,50.83
2023-11-30T19:42:44.957Z,50.69
2023-11-30T19:45:12.015Z,50.96
2023-11-30T19:47:39.543Z,50.72
2023-11-30T19:50:07.175Z,50.90
2023-11-30T19:52:36.279Z,50.80
2023-11-30T19:55:04.859Z,50.74
2023-11-30T19:57:32.096Z,50.71
2023-11-30T19:59:59.014Z,50.64
2023-11-30T20:02:26.456Z,50.84
2023-11-30T20:04:53.376Z,50.88
2023-11-30T20:07:20.707Z,50.61
2023-11-30T20:09:47.632Z,50.96
2023-11-30T20:12:14.790Z,51.03
2023-11-30T20:14:42.188Z,50.75
2023-11-30T20:17:09.411Z,50.86
2023-11-30T20:19:36.472Z,51.07
2023-11-30T20:22:04.051Z,51.08
2023-11-30T20:24:35.092Z,51.05
2023-11-30T20:27:08.658Z,51.02
2023-11-30T20:29:35.582Z,50.78
2023-11-30T20:32:02.840Z,51.10
2023-11-30T20:34:29.719Z,50.95
2023-11-30T20:36:57.517Z,51.10
2023-11-30T20:39:25.907Z,51.01
2023-11-30T20:41:53.236Z,50.71
2023-11-30T20:44:20.487Z,50.96
2023-11-30T20:46:47.636Z,50.91
2023-11-30T20:49:15.023Z,50.94
2023-11-30T20:51:42.279Z,50.97
2023-11-30T20:54:10.243Z,51.04
2023-11-30T20:56:37.576Z,50.94
2023-11-30T20:59:04.400Z,50.92
2023-11-30T21:01:32.265Z,51.20
2023-11-30T21:12:15.616Z,51.17
2023-11-30T21:14:43.141Z,51.05
2023-11-30T21:17:10.478Z,51.17
2023-11-30T21:19:37.400Z,50.90
2023-11-30T21:22:05.005Z,51.00
2023-11-30T21:24:34.252Z,51.32
2023-11-30T21:27:01.559Z,50.90
2023-11-30T21:29:28.466Z,51.03
2023-11-30T21:31:55.721Z,51.04
2023-11-30T21:34:22.646Z,51.08
2023-11-30T21:36:50.211Z,51.27
2023-11-30T21:39:17.141Z,50.96
2023-11-30T21:41:44.345Z,51.12
2023-11-30T21:44:11.292Z,50.80
2023-11-30T21:46:38.497Z,51.18
2023-11-30T21:49:05.735Z,50.84
2023-11-30T21:51:33.372Z,51.17
2023-11-30T21:54:03.211Z,51.11
2023-11-30T21:56:30.437Z,50.84
2023-11-30T21:58:57.374Z,50.76
2023-11-30T22:01:24.786Z,50.99
2023-11-30T22:03:51.816Z,51.25
2023-11-30T22:06:19.076Z,51.12
2023-11-30T22:08:49.919Z,51.23
2023-11-30T22:11:18.330Z,51.24
2023-11-30T22:13:45.933Z,51.13
2023-11-30T22:16:15.035Z,51.26
2023-11-30T22:18:43.720Z,51.07
2023-11-30T22:21:10.976Z,51.20
2023-11-30T22:23:37.887Z,51.22
2023-11-30T22:26:05.319Z,51.23
2023-11-30T22:28:32.290Z,51.49
2023-11-30T22:31:00.004Z,51.58
2023-11-30T22:33:27.034Z,51.46
2023-11-30T22:35:54.354Z,51.51
2023-11-30T22:38:21.877Z,51.23
2023-11-30T22:40:49.157Z,51.44
2023-11-30T22:43:16.005Z,51.22
2023-11-30T22:45:43.291Z,51.24
2023-11-30T22:48:10.240Z,51.34
2023-11-30T22:50:37.565Z,51.32
2023-11-30T22:53:04.654Z,51.27
2023-11-30T22:55:32.016Z,51.31
2023-11-30T22:57:58.989Z,51.48
2023-11-30T23:00:27.599Z,51.47
2023-11-30T23:02:54.694Z,51.24
2023-11-30T23:05:22.191Z,51.19
2023-11-30T23:07:49.198Z,51.25
2023-11-30T23:10:18.695Z,51.17
2023-11-30T23:12:46.232Z,51.45
2023-11-30T23:15:13.620Z,51.47
2023-11-30T23:17:40.701Z,51.19
2023-11-30T23:20:08.598Z,51.33
2023-11-30T23:22:36.085Z,51.52
2023-11-30T23:25:06.594Z,51.32
2023-11-30T23:27:33.603Z,51.70
2023-11-30T23:30:01.092Z,51.38
2023-11-30T23:32:28.103Z,51.27
2023-11-30T23:34:55.390Z,51.15
2023-11-30T23:37:22.426Z,51.29
2023-11-30T23:39:49.736Z,51.66
2023-11-30T23:42:17.075Z,51.27
2023-11-30T23:44:44.463Z,51.38
2023-11-30T23:47:11.619Z,51.39
2023-11-30T23:49:38.945Z,51.49
2023-11-30T23:52:06.524Z,51.45
2023-11-30T23:54:33.904Z,51.12
2023-11-30T23:57:00.919Z,51.17
2023-11-30T23:59:28.185Z,51.13
